Time;durP1;ratioP1;P1;durP2;ratioP2;P2;SDS_P1;SDS_P2;PMS_P1;PMS_P2;Temp;Humidity;BMP_temperature;BMP_pressure;BME280_temperature;BME280_humidity;BME280_pressure;Samples;Min_cycle;Max_cycle;Signal;HPM_P1;HPM_P2
2023/05/18 00:02:17;;;;;;;3.92;0.60;;;15.10;65.30;;;;;;5093028;28;20464;-76
2023/05/18 00:04:43;;;;;;;3.63;0.63;;;15.00;65.90;;;;;;5092968;28;20082;-76
2023/05/18 00:07:08;;;;;;;5.93;0.85;;;15.10;66.40;;;;;;5093175;28;20036;-76
2023/05/18 00:09:35;;;;;;;5.20;0.85;;;15.10;66.10;;;;;;5058429;28;20039;-76
2023/05/18 00:12:03;;;;;;;3.63;0.73;;;14.90;65.10;;;;;;5093116;28;20039;-76
2023/05/18 00:14:29;;;;;;;2.42;0.73;;;14.70;65.00;;;;;;5093295;28;20067;-76
2023/05/18 00:16:54;;;;;;;5.32;0.85;;;14.60;65.50;;;;;;5092486;28;20485;-76
2023/05/18 00:19:22;;;;;;;4.43;0.80;;;14.60;65.90;;;;;;5074934;28;20032;-75
2023/05/18 00:21:50;;;;;;;4.43;0.60;;;14.60;65.50;;;;;;5096911;28;20085;-76
2023/05/18 00:24:16;;;;;;;7.05;1.20;;;14.50;66.20;;;;;;5096736;28;20032;-76
2023/05/18 00:26:45;;;;;;;7.28;1.08;;;14.40;64.90;;;;;;5096071;28;20154;-76
2023/05/18 00:29:11;;;;;;;5.03;0.90;;;14.30;66.20;;;;;;5096884;28;20032;-76
2023/05/18 00:31:38;;;;;;;7.03;1.20;;;14.30;66.00;;;;;;5078561;28;20024;-76
2023/05/18 00:34:11;;;;;;;6.13;1.42;;;14.00;65.50;;;;;;5096492;28;20016;-76
2023/05/18 00:36:38;;;;;;;5.25;1.10;;;14.00;66.80;;;;;;5096209;28;20024;-76
2023/05/18 00:39:04;;;;;;;2.50;0.55;;;14.00;66.90;;;;;;5078137;28;20456;-76
2023/05/18 00:41:31;;;;;;;5.05;0.95;;;14.10;67.50;;;;;;5078599;28;20129;-76
2023/05/18 00:43:57;;;;;;;6.55;1.17;;;14.10;67.40;;;;;;5096369;28;20460;-76
2023/05/18 00:46:24;;;;;;;7.85;1.30;;;14.10;66.50;;;;;;5096226;28;20035;-76
2023/05/18 00:48:51;;;;;;;9.05;1.40;;;13.90;66.20;;;;;;5077814;28;20043;-76
2023/05/18 00:51:22;;;;;;;8.43;1.67;;;13.70;66.00;;;;;;5077791;28;20419;-76
2023/05/18 00:53:48;;;;;;;9.00;1.45;;;13.60;66.90;;;;;;5096192;28;20118;-75
2023/05/18 00:56:14;;;;;;;5.68;1.27;;;13.60;67.60;;;;;;5061232;28;20036;-76
2023/05/18 00:58:41;;;;;;;6.70;1.08;;;13.50;67.90;;;;;;5077553;28;20123;-76
2023/05/18 01:01:08;;;;;;;6.00;0.90;;;13.60;68.50;;;;;;5095902;28;20484;-76
2023/05/18 01:03:37;;;;;;;5.80;1.00;;;13.60;67.90;;;;;;5095978;28;20456;-76
2023/05/18 01:06:04;;;;;;;5.40;0.90;;;13.60;67.30;;;;;;5095892;28;20040;-76
2023/05/18 01:08:31;;;;;;;5.15;0.90;;;13.60;67.90;;;;;;5095885;28;20038;-76
2023/05/18 01:11:13;;;;;;;8.30;1.27;;;13.70;67.70;;;;;;5095799;28;20047;-76
2023/05/18 01:13:52;;;;;;;4.95;1.00;;;13.60;67.70;;;;;;5095593;28;20032;-76
2023/05/18 01:16:25;;;;;;;4.55;0.85;;;13.70;68.10;;;;;;5095798;28;20039;-76
2023/05/18 01:18:59;;;;;;;6.45;1.55;;;13.60;66.90;;;;;;5095558;28;20464;-75
2023/05/18 01:21:54;;;;;;;8.15;0.88;;;13.60;67.60;;;;;;5095969;28;20024;-76
2023/05/18 01:24:37;;;;;;;6.85;1.40;;;13.60;67.50;;;;;;5041235;28;20086;-76
2023/05/18 01:27:06;;;;;;;5.28;1.15;;;13.40;66.50;;;;;;5094984;28;20354;-76
2023/05/18 01:29:33;;;;;;;5.45;0.80;;;13.20;67.50;;;;;;5095471;28;20101;-76
2023/05/18 01:31:58;;;;;;;7.03;1.20;;;13.30;68.80;;;;;;5094457;28;20039;-76
2023/05/18 01:34:25;;;;;;;2.92;0.60;;;13.40;68.70;;;;;;5077170;28;20074;-75
2023/05/18 01:36:51;;;;;;;5.50;0.70;;;13.50;69.60;;;;;;5094817;28;20032;-76
2023/05/18 01:39:17;;;;;;;5.80;0.80;;;13.60;69.60;;;;;;5095259;28;20040;-76
2023/05/18 01:42:02;;;;;;;5.60;1.17;;;13.70;69.50;;;;;;5094957;28;20052;-76
2023/05/18 01:44:40;;;;;;;3.60;0.70;;;13.90;68.30;;;;;;5094959;28;20464;-76
2023/05/18 01:47:17;;;;;;;4.70;1.10;;;13.80;67.90;;;;;;5076790;28;20453;-76
2023/05/18 01:49:48;;;;;;;4.97;1.50;;;13.80;67.50;;;;;;5095191;28;20082;-75
2023/05/18 01:52:19;;;;;;;3.67;1.02;;;13.70;67.10;;;;;;5094980;28;20038;-76
2023/05/18 01:54:50;;;;;;;4.70;1.45;;;13.60;67.80;;;;;;5060663;28;20372;-76
2023/05/18 01:57:20;;;;;;;5.80;1.20;;;13.50;67.70;;;;;;5094002;28;20539;-77
2023/05/18 01:59:46;;;;;;;8.10;1.23;;;13.50;67.60;;;;;;5077004;28;20392;-76
2023/05/18 02:02:12;;;;;;;11.40;1.73;;;13.40;67.60;;;;;;5094848;28;20078;-76
2023/05/18 02:04:38;;;;;;;8.90;1.15;;;13.40;67.60;;;;;;5094613;28;20058;-76
2023/05/18 02:07:03;;;;;;;5.18;0.90;;;13.30;68.20;;;;;;5094755;28;20029;-76
2023/05/18 02:09:29;;;;;;;4.28;0.73;;;13.30;68.60;;;;;;5094449;28;20032;-76
2023/05/18 02:11:55;;;;;;;4.70;1.00;;;13.40;69.20;;;;;;5076468;28;20037;-76
2023/05/18 02:14:20;;;;;;;4.43;1.10;;;13.50;69.30;;;;;;5094578;28;20052;-76
2023/05/18 02:16:51;;;;;;;5.10;0.98;;;13.50;68.50;;;;;;5094270;28;20024;-76
2023/05/18 02:19:20;;;;;;;5.43;0.95;;;13.50;68.20;;;;;;5094293;28;20141;-76
2023/05/18 02:21:46;;;;;;;4.55;0.73;;;13.60;68.80;;;;;;5094451;28;20028;-76
2023/05/18 02:24:12;;;;;;;5.60;1.58;;;13.60;68.70;;;;;;5094211;28;20032;-76
2023/05/18 02:26:38;;;;;;;9.10;2.30;;;13.70;68.10;;;;;;5076153;28;20047;-76
2023/05/18 02:29:10;;;;;;;15.75;1.30;;;13.60;68.20;;;;;;5093876;28;20046;-76
2023/05/18 02:31:37;;;;;;;4.43;0.93;;;13.60;68.70;;;;;;5093932;28;20379;-76
2023/05/18 02:34:03;;;;;;;4.03;0.82;;;13.70;68.60;;;;;;5076026;28;20381;-76
2023/05/18 02:36:35;;;;;;;6.75;0.93;;;13.70;68.30;;;;;;5075997;28;20070;-76
2023/05/18 02:39:03;;;;;;;6.97;1.38;;;13.80;69.10;;;;;;5076067;28;20526;-76
2023/05/18 02:41:29;;;;;;;4.03;0.95;;;13.60;67.20;;;;;;5093936;28;20032;-76
2023/05/18 02:43:55;;;;;;;3.97;1.17;;;13.50;67.50;;;;;;5093123;28;20024;-76
2023/05/18 02:46:20;;;;;;;6.25;0.80;;;13.50;68.20;;;;;;5076393;28;20028;-76
2023/05/18 02:48:46;;;;;;;5.70;1.05;;;13.50;69.00;;;;;;5075800;28;20036;-75
2023/05/18 02:51:12;;;;;;;3.65;0.95;;;13.50;68.50;;;;;;5093899;28;20123;-76
2023/05/18 02:53:38;;;;;;;5.55;0.70;;;13.50;68.80;;;;;;5076060;28;20388;-76
2023/05/18 02:56:04;;;;;;;7.80;0.98;;;13.60;68.80;;;;;;5094015;28;20043;-76
2023/05/18 02:58:29;;;;;;;4.53;0.75;;;13.60;68.80;;;;;;5093434;28;20106;-76
2023/05/18 03:00:55;;;;;;;7.05;1.17;;;13.70;69.10;;;;;;5093695;28;20094;-76
2023/05/18 03:03:22;;;;;;;6.05;1.33;;;13.60;67.50;;;;;;5075781;28;20059;-76
2023/05/18 03:05:51;;;;;;;4.53;1.00;;;13.40;67.70;;;;;;5059124;28;20036;-76
2023/05/18 03:08:21;;;;;;;3.55;0.70;;;13.30;68.00;;;;;;5093832;28;20098;-76
2023/05/18 03:10:50;;;;;;;3.05;0.70;;;13.30;69.00;;;;;;5093738;28;20115;-76
2023/05/18 03:13:15;;;;;;;4.88;1.13;;;13.40;69.80;;;;;;5076171;28;20028;-76
2023/05/18 03:15:44;;;;;;;5.25;1.00;;;13.40;68.40;;;;;;5093215;28;20020;-76
2023/05/18 03:18:10;;;;;;;9.15;1.15;;;13.40;68.70;;;;;;5059370;28;20033;-76
2023/05/18 03:20:36;;;;;;;6.20;1.00;;;13.40;68.70;;;;;;5075729;28;20035;-76
2023/05/18 03:23:02;;;;;;;7.45;1.02;;;13.40;68.70;;;;;;5093960;28;20872;-76
2023/05/18 03:25:29;;;;;;;7.88;1.30;;;13.40;68.80;;;;;;5093044;28;20031;-76
2023/05/18 03:27:54;;;;;;;8.07;1.10;;;13.50;68.90;;;;;;5093142;28;20039;-76
2023/05/18 03:30:20;;;;;;;5.07;0.77;;;13.40;68.90;;;;;;5093746;28;20028;-76
2023/05/18 03:32:46;;;;;;;6.55;1.17;;;13.40;68.70;;;;;;5093599;28;20032;-76
2023/05/18 03:35:13;;;;;;;5.38;0.88;;;13.40;68.80;;;;;;5093250;28;20028;-76
2023/05/18 03:37:39;;;;;;;5.88;1.50;;;13.40;69.00;;;;;;5093339;28;20044;-76
2023/05/18 03:40:12;;;;;;;8.18;1.00;;;13.40;69.00;;;;;;5093497;28;20379;-76
2023/05/18 03:42:39;;;;;;;6.75;0.98;;;13.40;69.30;;;;;;5093499;28;20025;-76
2023/05/18 03:45:06;;;;;;;5.18;1.08;;;13.40;68.70;;;;;;5093198;28;20107;-76
2023/05/18 03:47:32;;;;;;;6.07;1.20;;;13.40;69.70;;;;;;5075274;28;20539;-76
2023/05/18 03:49:58;;;;;;;4.28;1.05;;;13.40;69.10;;;;;;5093394;28;20028;-76
2023/05/18 03:52:23;;;;;;;8.50;1.52;;;13.30;68.60;;;;;;5058456;28;20091;-76
2023/05/18 03:54:50;;;;;;;5.97;0.90;;;13.20;68.50;;;;;;5093926;28;20047;-76
2023/05/18 03:57:16;;;;;;;5.30;1.60;;;13.20;68.80;;;;;;5078577;28;20031;-76
2023/05/18 03:59:43;;;;;;;4.38;1.23;;;13.20;68.70;;;;;;5078886;28;20024;-76
2023/05/18 04:02:10;;;;;;;5.10;1.50;;;13.10;68.40;;;;;;5096893;28;20032;-76
2023/05/18 04:04:36;;;;;;;5.78;1.30;;;13.00;68.70;;;;;;5079056;28;20090;-76
2023/05/18 04:07:04;;;;;;;8.20;1.42;;;12.80;68.70;;;;;;5096754;28;20036;-76
2023/05/18 04:09:31;;;;;;;6.50;1.13;;;12.80;69.30;;;;;;5097090;28;20032;-76
2023/05/18 04:11:57;;;;;;;5.10;1.42;;;12.70;69.30;;;;;;5078774;28;20552;-76
2023/05/18 04:14:23;;;;;;;9.57;1.23;;;12.60;69.20;;;;;;5097060;28;20115;-79
2023/05/18 04:16:51;;;;;;;3.85;0.77;;;12.50;70.50;;;;;;5096930;28;20020;-76
2023/05/18 04:19:17;;;;;;;6.13;0.80;;;12.60;71.20;;;;;;5079028;28;20036;-76
2023/05/18 04:21:46;;;;;;;6.22;0.80;;;12.80;71.20;;;;;;5096854;28;20111;-76
2023/05/18 04:24:13;;;;;;;7.63;1.23;;;12.90;71.60;;;;;;5096526;28;20024;-76
2023/05/18 04:26:40;;;;;;;8.30;1.75;;;13.00;70.70;;;;;;5096744;28;20020;-76
2023/05/18 04:29:06;;;;;;;4.35;1.10;;;13.10;70.40;;;;;;5061291;28;20032;-76
2023/05/18 04:31:33;;;;;;;4.28;1.17;;;13.10;70.40;;;;;;5078382;28;20031;-76
2023/05/18 04:33:59;;;;;;;8.70;1.40;;;13.20;71.00;;;;;;5078575;28;20035;-76
2023/05/18 04:36:29;;;;;;;6.57;0.95;;;13.10;69.60;;;;;;5096525;28;20028;-76
2023/05/18 04:38:57;;;;;;;10.55;1.48;;;12.90;68.80;;;;;;5096215;28;20028;-76
2023/05/18 04:41:24;;;;;;;5.40;0.98;;;12.90;70.10;;;;;;5096466;28;20066;-76
2023/05/18 04:43:51;;;;;;;7.30;1.25;;;13.00;70.40;;;;;;5096321;28;20052;-76
2023/05/18 04:46:16;;;;;;;5.60;1.13;;;13.00;70.50;;;;;;5078070;28;20028;-76
2023/05/18 04:48:42;;;;;;;8.18;1.10;;;13.00;69.90;;;;;;5096086;28;20494;-76
2023/05/18 04:51:08;;;;;;;9.95;1.40;;;12.90;69.80;;;;;;5096264;28;20113;-76
2023/05/18 04:53:34;;;;;;;9.30;1.63;;;12.90;69.50;;;;;;5095884;28;20040;-76
2023/05/18 04:56:00;;;;;;;9.05;1.33;;;12.80;69.80;;;;;;5096192;28;20032;-76
2023/05/18 04:58:26;;;;;;;9.90;1.35;;;12.60;68.80;;;;;;5095529;28;20040;-76
2023/05/18 05:00:53;;;;;;;3.78;1.40;;;12.30;69.10;;;;;;5077342;28;20142;-76
2023/05/18 05:03:18;;;;;;;5.82;1.40;;;12.30;70.50;;;;;;5096006;28;20099;-76
2023/05/18 05:05:44;;;;;;;10.85;1.20;;;12.20;69.80;;;;;;5077502;28;20186;-76
2023/05/18 05:08:10;;;;;;;7.30;1.30;;;12.10;70.40;;;;;;5095027;28;20040;-76
2023/05/18 05:10:36;;;;;;;8.73;1.17;;;12.10;70.70;;;;;;5095977;28;20085;-76
2023/05/18 05:13:02;;;;;;;7.20;1.38;;;12.10;70.80;;;;;;5095904;28;20047;-76
2023/05/18 05:15:28;;;;;;;6.43;1.10;;;12.00;70.50;;;;;;5077246;28;20042;-76
2023/05/18 05:17:54;;;;;;;7.75;1.45;;;12.00;70.60;;;;;;5077487;28;20032;-76
2023/05/18 05:20:20;;;;;;;5.82;0.85;;;11.80;70.40;;;;;;5077299;28;20028;-76
2023/05/18 05:22:46;;;;;;;7.57;1.25;;;11.60;70.90;;;;;;5077419;28;20028;-76
2023/05/18 05:25:11;;;;;;;6.60;1.23;;;11.70;71.30;;;;;;5095688;28;20409;-76
2023/05/18 05:27:37;;;;;;;6.20;1.10;;;11.70;71.00;;;;;;5095138;28;20055;-76
2023/05/18 05:30:03;;;;;;;8.45;1.20;;;11.60;71.10;;;;;;5077329;28;20043;-76
2023/05/18 05:32:29;;;;;;;7.72;1.10;;;11.60;70.80;;;;;;5077348;28;20032;-75
2023/05/18 05:34:55;;;;;;;10.52;1.02;;;11.60;70.90;;;;;;5077234;28;20078;-75
2023/05/18 05:37:20;;;;;;;7.15;1.27;;;11.50;71.10;;;;;;5060365;28;20055;-76
2023/05/18 05:39:46;;;;;;;7.30;0.80;;;11.50;71.40;;;;;;5095355;28;20024;-76
2023/05/18 05:42:12;;;;;;;10.43;1.15;;;11.40;70.90;;;;;;5095329;28;20113;-76
2023/05/18 05:44:39;;;;;;;15.95;1.60;;;11.30;71.40;;;;;;5094998;28;20020;-76
2023/05/18 05:47:05;;;;;;;8.73;1.20;;;11.30;71.60;;;;;;5095127;28;20484;-76
2023/05/18 05:49:31;;;;;;;4.07;0.73;;;11.20;71.40;;;;;;5094903;28;20098;-76
2023/05/18 05:51:57;;;;;;;8.00;1.08;;;11.30;71.90;;;;;;5095031;28;20127;-76
2023/05/18 05:54:22;;;;;;;7.32;0.80;;;11.30;72.60;;;;;;5095075;28;20043;-76
2023/05/18 05:56:48;;;;;;;10.13;1.20;;;11.40;72.40;;;;;;5094464;28;20134;-76
2023/05/18 05:59:14;;;;;;;6.88;1.15;;;11.40;71.70;;;;;;5076181;28;20036;-76
2023/05/18 06:01:40;;;;;;;6.55;1.02;;;11.50;71.60;;;;;;5095012;28;20044;-76
2023/05/18 06:04:09;;;;;;;9.30;1.20;;;11.40;71.20;;;;;;5094863;28;20024;-76
2023/05/18 06:06:37;;;;;;;8.48;1.15;;;11.50;71.40;;;;;;5094509;28;20487;-76
2023/05/18 06:09:03;;;;;;;9.23;1.00;;;11.50;71.50;;;;;;5094597;28;20051;-76
2023/05/18 06:11:29;;;;;;;8.20;1.17;;;11.50;71.80;;;;;;5094350;28;20361;-76
2023/05/18 06:13:55;;;;;;;8.85;1.30;;;11.60;71.50;;;;;;5094589;28;20033;-76
2023/05/18 06:16:20;;;;;;;4.22;0.82;;;11.60;71.40;;;;;;5076474;28;20032;-76
2023/05/18 06:18:47;;;;;;;10.50;1.40;;;11.70;71.60;;;;;;5075950;28;20499;-76
2023/05/18 06:21:14;;;;;;;8.43;1.05;;;11.80;71.80;;;;;;5094551;28;20028;-76
2023/05/18 06:23:39;;;;;;;7.22;1.15;;;11.80;71.40;;;;;;5094492;28;20500;-76
2023/05/18 06:26:05;;;;;;;10.05;1.70;;;11.70;70.80;;;;;;5094464;28;20115;-76
2023/05/18 06:28:31;;;;;;;12.75;1.70;;;11.60;71.20;;;;;;5075884;28;20032;-76
2023/05/18 06:30:57;;;;;;;6.78;1.13;;;11.40;71.60;;;;;;5093870;28;20396;-76
2023/05/18 06:33:23;;;;;;;10.32;1.30;;;11.30;72.40;;;;;;5094048;28;20032;-76
2023/05/18 06:35:49;;;;;;;8.65;1.55;;;11.40;72.70;;;;;;5076072;28;20119;-76
2023/05/18 06:38:14;;;;;;;10.88;1.63;;;11.40;72.70;;;;;;5094143;28;20062;-76
2023/05/18 06:40:40;;;;;;;7.72;1.08;;;11.40;72.90;;;;;;5094153;28;20123;-76
2023/05/18 06:43:05;;;;;;;8.60;1.00;;;11.30;72.60;;;;;;5059139;28;20036;-77
2023/05/18 06:45:31;;;;;;;8.93;1.05;;;11.30;73.40;;;;;;5094104;28;20028;-76
2023/05/18 06:47:57;;;;;;;8.90;1.30;;;11.50;73.10;;;;;;5075853;28;20032;-76
2023/05/18 06:50:22;;;;;;;9.80;1.50;;;11.60;73.20;;;;;;5094017;28;20032;-77
2023/05/18 06:52:48;;;;;;;5.85;1.20;;;11.60;73.30;;;;;;5093952;28;20358;-76
2023/05/18 06:55:14;;;;;;;7.57;0.95;;;11.70;72.90;;;;;;5093767;28;20383;-77
2023/05/18 06:57:40;;;;;;;9.18;1.30;;;11.70;73.20;;;;;;5093110;28;20082;-76
2023/05/18 07:00:07;;;;;;;8.85;1.58;;;11.80;72.10;;;;;;5093544;28;20480;-76
2023/05/18 07:02:33;;;;;;;7.82;1.23;;;11.80;71.70;;;;;;5075807;28;20032;-76
2023/05/18 07:05:00;;;;;;;5.57;0.90;;;11.80;72.00;;;;;;5093533;28;20093;-76
2023/05/18 07:07:26;;;;;;;8.80;1.60;;;11.90;72.90;;;;;;5075388;28;20036;-76
2023/05/18 07:09:53;;;;;;;12.18;1.48;;;12.00;71.50;;;;;;5093740;28;20031;-76
2023/05/18 07:12:19;;;;;;;8.82;1.48;;;12.10;72.60;;;;;;5093874;28;20024;-76
2023/05/18 07:14:45;;;;;;;9.98;1.02;;;12.10;71.60;;;;;;5093584;28;20070;-76
2023/05/18 07:17:10;;;;;;;7.97;1.10;;;12.10;71.90;;;;;;5075397;28;20082;-76
2023/05/18 07:19:36;;;;;;;5.65;1.00;;;12.10;71.50;;;;;;5075791;28;20460;-76
2023/05/18 07:22:03;;;;;;;10.23;1.30;;;12.10;71.80;;;;;;5093627;28;20039;-76
2023/05/18 07:24:29;;;;;;;11.73;1.38;;;12.00;72.00;;;;;;5093620;28;20024;-75
2023/05/18 07:26:55;;;;;;;9.10;1.48;;;11.90;72.00;;;;;;5093562;28;20115;-75
2023/05/18 07:29:21;;;;;;;8.32;1.30;;;11.90;72.10;;;;;;5093085;28;20063;-76
2023/05/18 07:31:46;;;;;;;10.60;1.73;;;11.80;72.20;;;;;;5079543;28;20081;-75
2023/05/18 07:34:12;;;;;;;9.70;1.35;;;11.90;72.60;;;;;;5079239;28;20446;-76
2023/05/18 07:36:38;;;;;;;6.82;1.42;;;11.80;72.90;;;;;;5097362;28;20115;-76
2023/05/18 07:39:03;;;;;;;5.70;1.05;;;12.00;73.10;;;;;;5097543;28;20036;-76
2023/05/18 07:41:30;;;;;;;9.60;1.17;;;12.20;73.30;;;;;;5079608;28;20024;-76
2023/05/18 07:43:56;;;;;;;8.45;1.30;;;12.40;72.30;;;;;;5079418;28;20036;-76
2023/05/18 07:46:22;;;;;;;9.48;1.30;;;12.40;72.10;;;;;;5097148;28;20127;-76
2023/05/18 07:48:47;;;;;;;12.45;1.50;;;12.60;71.60;;;;;;5097210;28;20066;-76
2023/05/18 07:51:13;;;;;;;7.70;1.30;;;12.60;71.10;;;;;;5079540;28;20036;-76
2023/05/18 07:53:40;;;;;;;11.65;1.40;;;12.70;71.90;;;;;;5079286;28;20479;-76
2023/05/18 07:56:07;;;;;;;6.00;1.02;;;12.70;72.10;;;;;;5097481;28;20376;-76
2023/05/18 07:58:34;;;;;;;10.60;1.98;;;12.90;71.50;;;;;;5096788;28;20067;-76
2023/05/18 08:00:59;;;;;;;9.52;1.08;;;13.00;69.90;;;;;;5096892;28;20134;-76
2023/05/18 08:03:25;;;;;;;8.18;1.23;;;13.10;68.90;;;;;;5097141;28;20080;-76
2023/05/18 08:05:51;;;;;;;10.15;1.20;;;13.10;69.00;;;;;;5078992;28;20073;-76
2023/05/18 08:08:17;;;;;;;7.15;1.35;;;13.20;69.10;;;;;;5097074;28;20027;-77
2023/05/18 08:10:43;;;;;;;10.27;1.13;;;13.20;68.50;;;;;;5096993;28;20032;-76
2023/05/18 08:13:09;;;;;;;11.32;1.83;;;13.20;68.80;;;;;;5096439;28;20043;-76
2023/05/18 08:15:36;;;;;;;10.15;1.65;;;13.30;69.80;;;;;;5096595;28;20070;-76
2023/05/18 08:18:01;;;;;;;8.70;1.65;;;13.40;68.70;;;;;;5096789;28;20032;-76
2023/05/18 08:20:30;;;;;;;7.88;1.45;;;13.70;69.10;;;;;;5096842;28;20536;-76
2023/05/18 08:22:56;;;;;;;11.80;1.40;;;13.80;67.60;;;;;;5096815;28;20024;-76
2023/05/18 08:25:22;;;;;;;7.15;0.90;;;13.70;68.20;;;;;;5078600;28;20028;-76
2023/05/18 08:27:48;;;;;;;10.15;1.70;;;13.80;67.20;;;;;;5078119;28;20047;-76
2023/05/18 08:30:14;;;;;;;10.13;1.33;;;13.80;68.10;;;;;;5078545;28;20067;-75
2023/05/18 08:32:40;;;;;;;6.80;1.10;;;13.80;68.70;;;;;;5096676;28;20024;-76
2023/05/18 08:35:07;;;;;;;8.65;1.25;;;13.70;68.30;;;;;;5078412;28;20070;-76
2023/05/18 08:37:36;;;;;;;11.48;1.80;;;13.80;68.40;;;;;;5078144;28;20047;-76
2023/05/18 08:40:03;;;;;;;8.50;1.42;;;13.70;67.20;;;;;;5096165;28;20074;-76
2023/05/18 08:42:38;;;;;;;9.35;1.30;;;13.70;67.70;;;;;;5096318;28;20054;-76
2023/05/18 08:45:12;;;;;;;6.65;1.45;;;13.60;68.00;;;;;;5078292;28;20449;-76
2023/05/18 08:47:37;;;;;;;10.57;1.42;;;13.50;68.40;;;;;;5096265;28;20028;-76
2023/05/18 08:50:04;;;;;;;10.02;1.30;;;13.50;68.40;;;;;;5061103;28;20039;-76
2023/05/18 08:52:39;;;;;;;9.73;1.30;;;13.60;69.00;;;;;;5078091;28;20036;-76
2023/05/18 08:55:06;;;;;;;8.25;1.08;;;13.50;67.30;;;;;;5078205;28;20063;-76
2023/05/18 08:57:34;;;;;;;12.73;1.50;;;13.50;68.10;;;;;;5095291;28;20040;-77
2023/05/18 09:00:02;;;;;;;5.15;0.93;;;13.60;67.60;;;;;;5095597;28;20423;-76
2023/05/18 09:02:28;;;;;;;9.57;1.60;;;13.60;67.80;;;;;;5096040;28;20028;-76
2023/05/18 09:04:55;;;;;;;11.32;1.40;;;13.80;68.50;;;;;;5095722;28;20028;-77
2023/05/18 09:07:22;;;;;;;7.82;1.38;;;13.70;68.40;;;;;;5077952;28;20032;-76
2023/05/18 09:09:48;;;;;;;4.82;0.98;;;13.70;68.00;;;;;;5095247;28;20365;-77
2023/05/18 09:12:15;;;;;;;8.68;1.30;;;13.60;67.70;;;;;;5095620;28;20059;-76
2023/05/18 09:14:42;;;;;;;8.18;1.42;;;13.70;68.10;;;;;;5095664;28;20372;-77
2023/05/18 09:17:08;;;;;;;7.07;1.35;;;13.90;67.60;;;;;;5095795;28;20107;-75
2023/05/18 09:19:34;;;;;;;7.13;1.42;;;14.10;67.60;;;;;;5060666;28;20036;-76
2023/05/18 09:22:00;;;;;;;9.55;1.30;;;14.00;66.60;;;;;;5095565;28;20031;-75
2023/05/18 09:24:26;;;;;;;6.60;1.45;;;14.00;67.80;;;;;;5095315;28;20044;-77
2023/05/18 09:26:52;;;;;;;10.68;1.88;;;14.20;66.10;;;;;;5095490;28;20032;-77
2023/05/18 09:29:20;;;;;;;6.72;1.65;;;14.20;66.60;;;;;;5094717;28;20028;-76
2023/05/18 09:31:46;;;;;;;7.40;1.50;;;14.20;66.40;;;;;;5077307;28;20028;-77
2023/05/18 09:34:13;;;;;;;7.53;1.30;;;14.30;67.70;;;;;;5076701;28;20115;-76
2023/05/18 09:36:39;;;;;;;11.45;1.92;;;14.60;68.40;;;;;;5095300;28;20033;-76
2023/05/18 09:39:11;;;;;;;9.40;1.48;;;14.80;66.20;;;;;;5076981;28;20044;-77
2023/05/18 09:41:40;;;;;;;11.30;1.52;;;14.70;64.90;;;;;;5094846;28;20032;-77
2023/05/18 09:44:11;;;;;;;10.35;1.40;;;14.60;65.50;;;;;;5076983;28;20055;-77
2023/05/18 09:46:38;;;;;;;8.13;1.67;;;14.40;65.70;;;;;;5095127;28;20031;-77
2023/05/18 09:49:06;;;;;;;11.02;1.60;;;14.30;66.40;;;;;;5094759;28;20035;-77
2023/05/18 09:51:38;;;;;;;9.77;2.40;;;14.40;66.50;;;;;;5094986;28;20035;-77
2023/05/18 09:54:07;;;;;;;8.60;1.30;;;14.60;65.60;;;;;;5076275;28;20086;-77
2023/05/18 09:56:37;;;;;;;9.60;1.20;;;14.70;64.80;;;;;;5076706;28;20090;-77
2023/05/18 09:59:15;;;;;;;11.50;1.52;;;14.70;65.10;;;;;;5094272;28;20044;-77
2023/05/18 10:02:01;;;;;;;8.90;1.17;;;14.80;65.50;;;;;;5094561;28;20052;-77
2023/05/18 10:04:41;;;;;;;6.60;1.60;;;14.70;67.00;;;;;;5094656;28;20039;-76
2023/05/18 10:07:15;;;;;;;10.18;1.80;;;14.90;66.20;;;;;;5076421;28;20031;-77
2023/05/18 10:09:42;;;;;;;6.63;1.17;;;15.00;64.40;;;;;;5076645;28;20032;-77
2023/05/18 10:12:15;;;;;;;9.77;1.70;;;15.00;65.50;;;;;;5076310;28;20032;-76
2023/05/18 10:14:43;;;;;;;12.60;1.45;;;15.00;65.00;;;;;;5094705;28;20111;-77
2023/05/18 10:17:11;;;;;;;8.35;1.40;;;15.00;66.20;;;;;;5094594;28;20364;-77
2023/05/18 10:19:40;;;;;;;8.80;1.70;;;15.10;65.70;;;;;;5094413;28;20032;-77
2023/05/18 10:22:07;;;;;;;8.95;1.15;;;15.30;65.60;;;;;;5094443;28;20115;-76
2023/05/18 10:24:38;;;;;;;8.68;1.73;;;15.50;64.70;;;;;;5093816;28;20146;-77
2023/05/18 10:27:06;;;;;;;12.23;1.63;;;15.50;64.00;;;;;;5076449;28;20043;-77
2023/05/18 10:29:35;;;;;;;8.82;1.65;;;15.40;64.70;;;;;;5093938;28;20318;-76
2023/05/18 10:32:03;;;;;;;9.38;1.70;;;15.30;65.60;;;;;;5075720;28;20028;-77
2023/05/18 10:34:32;;;;;;;10.48;1.67;;;15.30;64.80;;;;;;5075826;28;20028;-76
2023/05/18 10:37:03;;;;;;;9.18;1.67;;;15.50;64.10;;;;;;5094049;28;20083;-76
2023/05/18 10:39:32;;;;;;;9.85;1.67;;;15.50;64.10;;;;;;5094146;28;20043;-76
2023/05/18 10:41:59;;;;;;;7.10;1.05;;;15.50;65.10;;;;;;5075964;28;20039;-76
2023/05/18 10:44:25;;;;;;;8.13;1.85;;;15.60;63.10;;;;;;5094038;28;20035;-76
2023/05/18 10:46:52;;;;;;;10.57;1.60;;;15.90;62.40;;;;;;5059356;28;20376;-76
2023/05/18 10:49:22;;;;;;;11.20;1.63;;;15.90;61.50;;;;;;5093999;28;20120;-77
2023/05/18 10:51:51;;;;;;;5.18;1.40;;;15.90;61.70;;;;;;5093637;28;20035;-77
2023/05/18 10:54:18;;;;;;;8.18;1.48;;;16.00;62.70;;;;;;5075718;28;20046;-77
2023/05/18 10:56:47;;;;;;;5.13;1.17;;;16.00;63.10;;;;;;5075841;28;20028;-78
2023/05/18 10:59:13;;;;;;;6.15;1.15;;;16.10;63.00;;;;;;5092969;28;20039;-78
2023/05/18 11:01:43;;;;;;;9.30;1.65;;;16.10;61.60;;;;;;5093458;28;20040;-78
2023/05/18 11:04:08;;;;;;;8.65;1.40;;;16.20;61.90;;;;;;5093077;28;20025;-78
2023/05/18 11:06:34;;;;;;;10.95;1.50;;;16.20;61.10;;;;;;5075262;28;20026;-78
2023/05/18 11:09:01;;;;;;;5.80;1.00;;;16.10;62.60;;;;;;5093711;28;20389;-77
2023/05/18 11:11:29;;;;;;;7.32;1.20;;;16.20;61.90;;;;;;5093430;28;20028;-78
2023/05/18 11:14:00;;;;;;;4.55;1.10;;;16.40;60.00;;;;;;5075428;28;20034;-78
2023/05/18 11:16:34;;;;;;;7.85;1.30;;;16.50;61.00;;;;;;5075590;28;20039;-78
2023/05/18 11:19:11;;;;;;;7.30;1.55;;;16.60;61.40;;;;;;5093307;28;20480;-77
2023/05/18 11:21:40;;;;;;;7.93;1.60;;;16.70;60.60;;;;;;5075375;28;20028;-78
2023/05/18 11:24:31;;;;;;;7.38;1.55;;;16.70;62.40;;;;;;5075114;28;20032;-78
2023/05/18 11:27:14;;;;;;;10.05;1.48;;;16.80;61.70;;;;;;5075624;28;20025;-77
2023/05/18 11:29:41;;;;;;;9.30;1.40;;;17.00;60.20;;;;;;5060109;28;20036;-78
2023/05/18 11:32:26;;;;;;;7.07;1.42;;;17.00;59.70;;;;;;5058676;28;20060;-79
2023/05/18 11:34:53;;;;;;;7.22;1.40;;;17.00;59.80;;;;;;5075764;28;20043;-78
2023/05/18 11:37:54;;;;;;;6.72;1.70;;;17.10;60.40;;;;;;5093288;28;20028;-78
2023/05/18 11:40:48;;;;;;;7.47;1.25;;;17.20;59.60;;;;;;4991387;28;20027;-78
2023/05/18 11:43:23;;;;;;;6.50;1.55;;;17.40;58.90;;;;;;5091677;28;20040;-78
2023/05/18 11:45:57;;;;;;;6.63;1.13;;;17.30;59.30;;;;;;5058595;28;20443;-78
2023/05/18 11:48:28;;;;;;;6.43;1.40;;;17.40;59.20;;;;;;5058501;28;20038;-78
2023/05/18 11:50:57;;;;;;;6.95;1.58;;;17.60;60.90;;;;;;5074944;28;20479;-78
2023/05/18 11:53:25;;;;;;;6.43;1.15;;;17.80;60.10;;;;;;5091970;28;20511;-78
2023/05/18 11:55:55;;;;;;;8.73;1.50;;;17.70;59.20;;;;;;5092932;28;20024;-78
2023/05/18 11:58:23;;;;;;;9.27;1.88;;;17.80;57.70;;;;;;5092743;28;20039;-77
2023/05/18 12:00:50;;;;;;;6.75;1.30;;;18.00;58.80;;;;;;5093106;28;20044;-78
2023/05/18 12:03:16;;;;;;;7.85;1.45;;;18.00;60.00;;;;;;5092908;28;20089;-79
2023/05/18 12:05:48;;;;;;;6.43;1.40;;;18.10;57.40;;;;;;5092896;28;20457;-78
2023/05/18 12:08:19;;;;;;;9.20;1.90;;;18.20;58.10;;;;;;5074993;28;20064;-78
2023/05/18 12:10:47;;;;;;;6.10;1.70;;;18.20;57.80;;;;;;5075224;28;20266;-78
2023/05/18 12:13:16;;;;;;;6.82;1.52;;;18.00;57.40;;;;;;5093201;28;20074;-78
2023/05/18 12:15:45;;;;;;;5.80;1.23;;;18.00;57.80;;;;;;5093513;28;20055;-78
2023/05/18 12:18:11;;;;;;;6.97;1.40;;;18.00;57.50;;;;;;5096318;28;20058;-78
2023/05/18 12:20:39;;;;;;;5.32;1.17;;;18.00;58.50;;;;;;5096410;28;20057;-78
2023/05/18 12:23:05;;;;;;;9.10;1.63;;;17.90;57.70;;;;;;5096725;28;20117;-78
2023/05/18 12:25:31;;;;;;;9.05;1.60;;;17.90;57.10;;;;;;5078768;28;20469;-77
2023/05/18 12:27:56;;;;;;;5.50;1.38;;;17.80;57.90;;;;;;5078099;28;20044;-78
2023/05/18 12:30:24;;;;;;;7.03;1.52;;;17.70;57.20;;;;;;5096292;28;20086;-78
2023/05/18 12:33:01;;;;;;;8.40;1.20;;;17.60;57.90;;;;;;5096688;28;20016;-78
2023/05/18 12:35:28;;;;;;;5.88;1.50;;;17.50;57.50;;;;;;5078424;28;20046;-77
2023/05/18 12:37:56;;;;;;;6.25;1.38;;;17.40;56.90;;;;;;5061606;28;20040;-77
2023/05/18 12:40:23;;;;;;;4.00;0.90;;;17.30;56.70;;;;;;5096332;28;20016;-77
2023/05/18 12:42:58;;;;;;;6.30;1.38;;;17.20;57.60;;;;;;5096486;28;20103;-78
2023/05/18 12:45:32;;;;;;;8.80;1.10;;;17.30;57.20;;;;;;5077990;28;20484;-78
2023/05/18 12:48:04;;;;;;;6.28;1.90;;;17.40;58.20;;;;;;5096335;28;20028;-78
2023/05/18 12:50:30;;;;;;;5.35;1.40;;;17.40;58.20;;;;;;5095919;28;20039;-78